Poughkeepsie, NY (12603)

8:57 AM EST on February 10, 2016 (GMT -0500)
Overlook Estates | | Change Station
CLOSE
Current Station
Personal Weather Station
Location: Poughkeepsie, NY
Elevation: 280 ft
Nearby Weather Stations

Elev 280 ft 41.71 °N, 73.85 °W | Updated 54 seconds ago

Overcast
Overcast
33.3 °F
Feels Like 33 °F
N
0.0
Wind Variable Wind from South
Gusts 0.0 mph

Today
High -- | Low -- °F
--% Chance of Precip.
Yesterday
High -- | Low -- °F
Precip. -- in
Pressure 29.60 in
Visibility 1.5 miles
Clouds Scattered Clouds 2300 ft
Scattered Clouds 3000 ft
Overcast 4100 ft
Windchill 33 °F
Dew Point 29 °F
Humidity 84%
Rainfall 0.00 in
Snow Depth Not available.
6:57 AM 5:21 PM
Waxing Crescent, 5% visible
METAR KPOU 101353Z 00000KT 1 1/2SM SCT023 SCT030 OVC041 01/M02 A2960 RMK AO2 SLP021 T00061017
Pressure 29.60 in
Visibility 1.5 miles
Clouds Scattered Clouds 2300 ft
Scattered Clouds 3000 ft
Overcast 4100 ft
Windchill 33 °F
Dew Point 29 °F
Humidity 84%
Rainfall 0.00 in
Snow Depth Not available.
6:57 AM 5:21 PM
Waxing Crescent, 5% visible
METAR KPOU 101353Z 00000KT 1 1/2SM SCT023 SCT030 OVC041 01/M02 A2960 RMK AO2 SLP021 T00061017

10-Day Weather Forecast

Almanac

Astronomy

Feb. 10, 2016 Rise Set
Actual Time
Civil Twilight
Nautical Twilight
Astronomical Twilight
Moon
Length of Visible Light
Length of Day
Tomorrow will be .
, % of the Moon is Illuminated

Today's Extremes

State Highs State Lows

Community

WunderPhotos

Upload Photos

1,891,845 photos uploaded!

WunderBlog® & News

Nearby

Air Quality

  Air Quality AQ Index Pollutant
Not available.

Snow Depth

Station Depth Elevation

Earthquake Activity

City Distance Mag. Time & Date
Minimum magnitude displayed is 2.5.

Coastal Water Temperatures

Place Temperature

Stations

Nearby Weather Stations

Station Location Temp. Windchill Dew Point Humidity Wind Precip. Elev Updated Type
                   

Watches & Warnings

There are currently no watches in effect.